Time;durP1;ratioP1;P1;durP2;ratioP2;P2;SDS_P1;SDS_P2;PMS_P1;PMS_P2;Temp;Humidity;BMP_temperature;BMP_pressure;BME280_temperature;BME280_humidity;BME280_pressure;Samples;Min_cycle;Max_cycle;Signal;HPM_P1;HPM_P2
2022/06/17 00:01:45;;;;;;;10.15;5.43;;;;;;;16.97;100.00;98253.16;5092088;28;20027;-75
2022/06/17 00:04:10;;;;;;;7.60;5.25;;;;;;;16.95;100.00;98238.84;5091833;28;20066;-76
2022/06/17 00:06:47;;;;;;;9.20;5.82;;;;;;;16.93;100.00;98235.63;5090927;28;20077;-76
2022/06/17 00:09:17;;;;;;;13.35;5.80;;;;;;;16.95;100.00;98246.31;5090570;28;20051;-76
2022/06/17 00:11:42;;;;;;;9.82;6.10;;;;;;;16.86;100.00;98238.06;5089375;28;20044;-75
2022/06/17 00:14:21;;;;;;;9.48;5.75;;;;;;;16.77;100.00;98253.84;5090165;28;20024;-77
2022/06/17 00:16:47;;;;;;;10.00;5.30;;;;;;;16.76;100.00;98251.44;5091662;28;20031;-75
2022/06/17 00:19:14;;;;;;;8.55;5.43;;;;;;;16.81;100.00;98265.88;5091686;28;20496;-77
2022/06/17 00:21:43;;;;;;;8.02;5.40;;;;;;;16.80;100.00;98253.19;5091544;28;20034;-75
2022/06/17 00:24:26;;;;;;;9.90;5.95;;;;;;;16.89;100.00;98248.47;5091590;28;20115;-76
2022/06/17 00:26:54;;;;;;;8.93;5.38;;;;;;;16.92;100.00;98239.50;5090311;28;20060;-76
2022/06/17 00:29:25;;;;;;;5.97;4.82;;;;;;;16.94;100.00;98236.44;5091517;28;20024;-75
2022/06/17 00:31:50;;;;;;;7.53;5.75;;;;;;;16.90;100.00;98238.22;5090024;28;20043;-74
2022/06/17 00:34:16;;;;;;;7.82;5.22;;;;;;;16.76;100.00;98230.13;5091097;28;20032;-76
2022/06/17 00:36:42;;;;;;;6.88;5.20;;;;;;;16.78;100.00;98216.00;5091265;28;20028;-77
2022/06/17 00:39:23;;;;;;;6.70;5.05;;;;;;;16.74;100.00;98210.31;5089964;28;20020;-76
2022/06/17 00:41:52;;;;;;;17.00;6.47;;;;;;;16.76;100.00;98223.81;5090212;28;21077;-75
2022/06/17 00:44:35;;;;;;;11.68;7.20;;;;;;;16.66;100.00;98215.88;5091233;28;20039;-75
2022/06/17 00:47:14;;;;;;;12.73;6.63;;;;;;;16.63;100.00;98219.28;5091235;28;20032;-75
2022/06/17 00:49:47;;;;;;;10.63;7.38;;;;;;;16.69;100.00;98229.84;5091030;28;20028;-76
2022/06/17 00:52:21;;;;;;;12.85;7.50;;;;;;;16.69;100.00;98229.84;5079355;28;20036;-75
2022/06/17 00:54:55;;;;;;;12.63;9.18;;;;;;;16.58;100.00;98228.53;5070707;28;20126;-75
2022/06/17 00:57:37;;;;;;;11.48;7.93;;;;;;;16.60;100.00;98216.00;5069743;28;20037;-76
2022/06/17 01:00:16;;;;;;;13.70;8.88;;;;;;;16.50;100.00;98223.81;5068679;28;20029;-74
2022/06/17 01:02:55;;;;;;;13.05;9.07;;;;;;;16.38;100.00;98229.19;5070800;28;20051;-74
2022/06/17 01:05:28;;;;;;;12.40;8.98;;;;;;;16.39;100.00;98225.28;5070076;28;20374;-73
2022/06/17 01:08:01;;;;;;;11.77;9.38;;;;;;;16.50;100.00;98234.88;5069384;28;20033;-74
2022/06/17 01:10:28;;;;;;;15.48;9.63;;;;;;;16.55;100.00;98231.97;5070928;28;20052;-74
2022/06/17 01:13:00;;;;;;;13.40;9.30;;;;;;;16.61;100.00;98227.88;5070655;28;20039;-75
2022/06/17 01:15:28;;;;;;;15.75;9.40;;;;;;;16.65;100.00;98228.84;5069153;28;20111;-76
2022/06/17 01:17:55;;;;;;;15.68;9.00;;;;;;;16.70;100.00;98228.69;5086196;28;20021;-75
2022/06/17 01:20:23;;;;;;;18.35;9.55;;;;;;;16.78;100.00;98227.03;5070594;28;20383;-75
2022/06/17 01:22:58;;;;;;;12.38;8.65;;;;;;;16.87;100.00;98222.31;5070610;28;20094;-74
2022/06/17 01:25:33;;;;;;;11.48;8.30;;;;;;;16.91;100.00;98214.97;5072486;28;20035;-75
2022/06/17 01:28:03;;;;;;;15.13;9.10;;;;;;;16.85;100.00;98227.34;5075100;28;20032;-75
2022/06/17 01:30:34;;;;;;;12.40;8.55;;;;;;;16.91;100.00;98235.16;5070800;28;20032;-74
2022/06/17 01:33:18;;;;;;;11.55;7.43;;;;;;;16.96;100.00;98237.72;5070349;28;20032;-77
2022/06/17 01:35:47;;;;;;;11.15;8.27;;;;;;;17.08;100.00;98242.56;5070514;28;20603;-76
2022/06/17 01:38:13;;;;;;;15.00;8.07;;;;;;;17.12;100.00;98244.34;5070436;28;20029;-74
2022/06/17 01:40:39;;;;;;;13.63;8.60;;;;;;;17.09;100.00;98241.41;5068909;28;20722;-75
2022/06/17 01:43:10;;;;;;;10.90;7.60;;;;;;;17.10;100.00;98234.75;5069392;28;20064;-75
2022/06/17 01:45:42;;;;;;;13.07;8.63;;;;;;;17.16;100.00;98243.66;5067699;28;20016;-75
2022/06/17 01:48:09;;;;;;;11.65;8.57;;;;;;;17.10;100.00;98238.31;5069435;28;20020;-75
2022/06/17 01:50:37;;;;;;;11.30;8.52;;;;;;;16.98;100.00;98242.91;5069045;28;20048;-75
2022/06/17 01:53:09;;;;;;;11.00;8.18;;;;;;;16.94;100.00;98241.97;5070388;28;20024;-74
2022/06/17 01:55:41;;;;;;;9.82;7.15;;;;;;;16.94;100.00;98240.00;5068920;28;20071;-74
2022/06/17 01:58:13;;;;;;;12.25;7.72;;;;;;;16.91;100.00;98232.38;5068859;28;20392;-75
2022/06/17 02:00:41;;;;;;;11.55;7.88;;;;;;;16.90;100.00;98230.75;5069130;28;20028;-73
2022/06/17 02:03:13;;;;;;;8.93;7.18;;;;;;;16.99;100.00;98241.78;5071799;28;20119;-74
2022/06/17 02:05:43;;;;;;;9.32;7.88;;;;;;;16.93;100.00;98243.09;5090575;28;20070;-74
2022/06/17 02:08:09;;;;;;;10.95;8.20;;;;;;;16.81;100.00;98234.69;5090599;28;20051;-75
2022/06/17 02:10:39;;;;;;;11.95;8.05;;;;;;;16.84;100.00;98236.78;5090575;28;20501;-76
2022/06/17 02:13:07;;;;;;;11.25;8.95;;;;;;;16.88;100.00;98246.84;5090278;28;20442;-74
2022/06/17 02:15:34;;;;;;;13.77;9.60;;;;;;;16.98;100.00;98246.47;5090340;28;20473;-74
2022/06/17 02:18:00;;;;;;;17.23;8.98;;;;;;;17.10;100.00;98257.66;5090339;28;20048;-75
2022/06/17 02:20:26;;;;;;;17.73;9.07;;;;;;;17.02;100.00;98255.75;5090307;28;20511;-74
2022/06/17 02:22:53;;;;;;;16.63;9.52;;;;;;;16.95;100.00;98249.09;5088831;28;20127;-76
2022/06/17 02:25:30;;;;;;;12.40;8.75;;;;;;;16.93;100.00;98248.63;5088639;28;20032;-75
2022/06/17 02:28:00;;;;;;;15.05;9.13;;;;;;;16.85;100.00;98247.50;5088637;28;20495;-74
2022/06/17 02:30:26;;;;;;;14.82;8.82;;;;;;;16.91;100.00;98242.63;5088614;28;20135;-74
2022/06/17 02:32:55;;;;;;;11.88;8.65;;;;;;;16.99;100.00;98239.00;5089898;28;20445;-76
2022/06/17 02:35:42;;;;;;;15.93;7.38;;;;;;;17.05;100.00;98244.03;5090359;28;20035;-73
2022/06/17 02:38:14;;;;;;;12.48;8.27;;;;;;;16.97;100.00;98236.59;5093673;28;20044;-74
2022/06/17 02:40:43;;;;;;;10.50;7.95;;;;;;;16.85;100.00;98246.69;5094130;28;20023;-75
2022/06/17 02:43:16;;;;;;;12.32;8.18;;;;;;;16.76;100.00;98246.69;5091980;28;20055;-75
2022/06/17 02:45:45;;;;;;;12.38;8.02;;;;;;;16.83;100.00;98257.25;5092115;28;20035;-74
2022/06/17 02:48:27;;;;;;;11.60;7.97;;;;;;;16.82;100.00;98241.84;5091977;28;20028;-74
2022/06/17 02:50:55;;;;;;;10.40;7.00;;;;;;;16.79;100.00;98250.78;5088788;28;20396;-75
2022/06/17 02:53:28;;;;;;;11.63;7.35;;;;;;;16.77;100.00;98248.34;5083815;28;20068;-76
2022/06/17 02:55:55;;;;;;;12.13;7.72;;;;;;;16.79;100.00;98245.25;5092824;28;20111;-74
2022/06/17 02:58:35;;;;;;;17.00;7.70;;;;;;;16.74;100.00;98243.47;5072311;28;20032;-75
2022/06/17 03:01:01;;;;;;;12.50;7.32;;;;;;;16.66;100.00;98237.97;5071507;28;20016;-75
2022/06/17 03:03:27;;;;;;;11.10;7.63;;;;;;;16.79;100.00;98251.56;5072655;28;20082;-75
2022/06/17 03:05:53;;;;;;;11.95;7.28;;;;;;;16.80;100.00;98244.91;5072620;28;20385;-73
2022/06/17 03:08:29;;;;;;;12.60;7.63;;;;;;;16.85;100.00;98264.06;5072919;28;20048;-74
2022/06/17 03:10:57;;;;;;;12.48;8.35;;;;;;;16.76;100.00;98263.28;5093031;28;20052;-74
2022/06/17 03:13:30;;;;;;;13.85;7.70;;;;;;;16.82;100.00;98270.25;5092654;28;20502;-75
2022/06/17 03:15:59;;;;;;;12.70;7.90;;;;;;;16.82;100.00;98256.44;5094660;28;20031;-74
2022/06/17 03:18:26;;;;;;;17.55;8.93;;;;;;;16.81;100.00;98260.34;5091675;28;20115;-75
2022/06/17 03:20:52;;;;;;;11.70;7.68;;;;;;;16.93;100.00;98266.00;5093546;28;20089;-74
2022/06/17 03:23:50;;;;;;;11.80;8.98;;;;;;;16.97;100.00;98258.69;5092199;28;20036;-74
2022/06/17 03:26:21;;;;;;;14.77;8.57;;;;;;;16.96;100.00;98268.13;5083986;28;20033;-75
2022/06/17 03:28:49;;;;;;;9.90;7.55;;;;;;;16.87;100.00;98269.28;5092457;28;20380;-76
2022/06/17 03:31:29;;;;;;;14.20;9.48;;;;;;;16.97;100.00;98269.75;5092342;28;20468;-73
2022/06/17 03:34:00;;;;;;;15.50;8.13;;;;;;;16.94;100.00;98269.59;5092147;28;20166;-74
2022/06/17 03:36:51;;;;;;;13.25;9.18;;;;;;;16.95;100.00;98277.53;5092767;28;20016;-74
2022/06/17 03:39:32;;;;;;;15.73;9.60;;;;;;;16.99;100.00;98284.03;5095492;28;20024;-75
2022/06/17 03:42:06;;;;;;;16.23;9.90;;;;;;;16.89;100.00;98278.84;5095616;28;20032;-74
2022/06/17 03:44:40;;;;;;;13.40;9.73;;;;;;;16.98;100.00;98287.13;5092570;28;20021;-74
2022/06/17 03:47:16;;;;;;;21.13;11.02;;;;;;;17.00;100.00;98290.38;5072258;28;20024;-74
2022/06/17 03:49:46;;;;;;;17.02;10.77;;;;;;;17.08;100.00;98292.31;5072003;28;20020;-76
2022/06/17 03:52:42;;;;;;;18.65;11.25;;;;;;;17.12;100.00;98298.81;5071728;28;20029;-75
2022/06/17 03:55:12;;;;;;;;;;;;;;;17.09;100.00;98294.75;5090337;28;20071;-74
2022/06/17 03:57:37;;;;;;;18.73;12.43;;;;;;;17.14;100.00;98302.88;5091941;28;19923;-74
2022/06/17 04:00:04;;;;;;;19.25;12.05;;;;;;;17.16;100.00;98298.97;5090225;28;20020;-75
2022/06/17 04:02:32;;;;;;;22.63;12.02;;;;;;;17.25;100.00;98313.56;5091583;28;20082;-74
2022/06/17 04:04:58;;;;;;;15.80;11.02;;;;;;;17.27;100.00;98316.81;5091813;28;20062;-76
2022/06/17 04:07:23;;;;;;;19.25;10.40;;;;;;;17.33;100.00;98309.97;5091853;28;20043;-75
2022/06/17 04:09:50;;;;;;;18.40;10.65;;;;;;;17.34;100.00;98317.94;5091710;28;20089;-77
2022/06/17 04:12:23;;;;;;;15.85;11.05;;;;;;;17.32;100.00;98317.44;5091934;28;20031;-75
2022/06/17 04:15:18;;;;;;;15.75;11.05;;;;;;;17.34;100.00;98323.47;5091367;28;20540;-74
2022/06/17 04:17:48;;;;;;;14.33;10.10;;;;;;;17.26;100.00;98320.75;5091633;28;20056;-75
2022/06/17 04:20:49;;;;;;;18.88;11.07;;;;;;;17.19;100.00;98317.66;5090008;28;20032;-75
2022/06/17 04:23:26;;;;;;;15.38;10.82;;;;;;;17.20;100.00;98311.78;5091272;28;20039;-74
2022/06/17 04:25:59;;;;;;;13.07;10.55;;;;;;;17.17;100.00;98311.63;5091367;28;20027;-75
2022/06/17 04:28:49;;;;;;;13.95;10.30;;;;;;;16.80;100.00;98307.66;5091163;28;20047;-75
2022/06/17 04:31:18;;;;;;;18.92;11.43;;;;;;;16.92;100.00;98311.38;5089333;28;20028;-74
2022/06/17 04:34:03;;;;;;;15.68;10.63;;;;;;;17.28;100.00;98318.44;5090148;28;20038;-76
2022/06/17 04:36:34;;;;;;;16.10;10.80;;;;;;;17.37;100.00;98322.00;5089516;28;20377;-75
2022/06/17 04:39:24;;;;;;;15.05;10.60;;;;;;;17.46;100.00;98320.81;5091074;28;20115;-75
2022/06/17 04:41:52;;;;;;;14.35;10.30;;;;;;;17.60;100.00;98328.94;5091506;28;20020;-74
2022/06/17 04:44:18;;;;;;;16.80;11.23;;;;;;;17.62;100.00;98329.41;5089639;28;20042;-74
2022/06/17 04:46:52;;;;;;;16.85;11.65;;;;;;;17.36;100.00;98325.88;5086843;28;20031;-75
2022/06/17 04:49:26;;;;;;;17.92;12.05;;;;;;;17.44;100.00;98338.91;5101683;28;20084;-84
2022/06/17 04:52:01;;;;;;;16.63;12.23;;;;;;;17.38;100.00;98327.22;5101426;28;20032;-85
2022/06/17 04:54:28;;;;;;;20.45;12.73;;;;;;;17.49;100.00;98324.88;5101355;28;20028;-83
2022/06/17 04:56:58;;;;;;;18.75;12.35;;;;;;;17.69;100.00;98318.66;5107912;28;20055;-85
2022/06/17 04:59:34;;;;;;;20.58;12.65;;;;;;;17.44;100.00;98311.25;5101932;28;20032;-81
2022/06/17 05:02:01;;;;;;;19.80;12.70;;;;;;;17.74;100.00;98307.38;5107308;28;20473;-83
2022/06/17 05:04:27;;;;;;;15.07;10.40;;;;;;;18.00;100.00;98313.59;5110399;28;20027;-84
2022/06/17 05:06:53;;;;;;;17.83;11.20;;;;;;;18.15;100.00;98318.53;5111026;28;20055;-82
2022/06/17 05:09:24;;;;;;;16.27;11.15;;;;;;;18.32;100.00;98331.47;5111961;28;20028;-80
2022/06/17 05:11:55;;;;;;;20.98;11.57;;;;;;;18.46;100.00;98325.66;5111201;28;20055;-83
2022/06/17 05:14:45;;;;;;;16.17;9.77;;;;;;;18.33;100.00;98321.19;5108933;28;20008;-83
2022/06/17 05:17:10;;;;;;;18.90;11.18;;;;;;;18.29;100.00;98326.63;5108378;28;20465;-84
2022/06/17 05:19:36;;;;;;;18.70;11.73;;;;;;;18.22;100.00;98336.59;5106947;28;20024;-81
2022/06/17 05:22:03;;;;;;;14.77;10.35;;;;;;;18.12;100.00;98335.00;5108714;28;20039;-82
2022/06/17 05:24:30;;;;;;;16.55;11.20;;;;;;;18.02;100.00;98327.91;5105618;28;20053;-82
2022/06/17 05:26:57;;;;;;;19.35;11.52;;;;;;;17.83;100.00;98313.69;5102426;28;20020;-82
2022/06/17 05:29:23;;;;;;;15.55;12.02;;;;;;;17.89;100.00;98334.47;5089532;28;20020;-77
2022/06/17 05:31:49;;;;;;;13.90;11.30;;;;;;;17.71;100.00;98323.84;5107567;28;20149;-84
2022/06/17 05:34:18;;;;;;;17.55;10.80;;;;;;;17.84;100.00;98336.63;5112849;28;20028;-85
2022/06/17 05:36:43;;;;;;;17.48;11.60;;;;;;;17.85;100.00;98328.00;5113679;28;20039;-84
2022/06/17 05:39:09;;;;;;;15.02;10.60;;;;;;;17.97;100.00;98333.66;5095266;28;20025;-80
2022/06/17 05:41:34;;;;;;;14.60;10.48;;;;;;;18.12;100.00;98344.13;5092335;28;20513;-82
2022/06/17 05:44:00;;;;;;;14.98;10.43;;;;;;;18.06;100.00;98342.72;5093471;28;20032;-80
2022/06/17 05:46:25;;;;;;;14.98;10.68;;;;;;;18.22;100.00;98353.19;5091664;28;20067;-81
2022/06/17 05:48:50;;;;;;;14.07;10.65;;;;;;;18.15;100.00;98353.72;5093066;28;20028;-81
2022/06/17 05:51:16;;;;;;;17.77;11.98;;;;;;;18.06;100.00;98351.03;5101108;28;20016;-82
2022/06/17 05:53:42;;;;;;;16.33;9.93;;;;;;;18.01;100.00;98353.97;5097503;28;20028;-79
2022/06/17 05:56:07;;;;;;;18.00;10.90;;;;;;;17.93;100.00;98351.25;5090782;28;20016;-81
2022/06/17 05:58:32;;;;;;;17.50;11.57;;;;;;;17.99;100.00;98370.09;5093420;28;20030;-81
2022/06/17 06:00:58;;;;;;;18.70;11.93;;;;;;;18.19;100.00;98374.91;5091335;28;20024;-81
2022/06/17 06:03:28;;;;;;;14.55;10.77;;;;;;;18.33;100.00;98362.72;5090836;28;20043;-80
2022/06/17 06:05:54;;;;;;;22.48;10.52;;;;;;;18.44;100.00;98361.22;5092321;28;20027;-81
2022/06/17 06:08:19;;;;;;;15.20;10.48;;;;;;;18.55;100.00;98357.72;5095214;28;20447;-80
2022/06/17 06:10:45;;;;;;;17.02;10.73;;;;;;;18.84;100.00;98375.44;5097375;28;20052;-82
2022/06/17 06:13:20;;;;;;;17.38;10.48;;;;;;;19.02;100.00;98372.16;5096454;28;20024;-80
2022/06/17 06:15:47;;;;;;;14.90;10.53;;;;;;;19.12;100.00;98376.47;5097031;28;20043;-80
2022/06/17 06:18:19;;;;;;;19.40;10.60;;;;;;;18.96;100.00;98384.63;5094343;28;20028;-82
2022/06/17 06:20:46;;;;;;;18.80;11.10;;;;;;;18.83;100.00;98391.25;5095658;28;20043;-80
2022/06/17 06:23:12;;;;;;;18.67;10.63;;;;;;;18.91;100.00;98398.69;5101275;28;20397;-79
2022/06/17 06:25:37;;;;;;;13.73;10.00;;;;;;;18.96;100.00;98392.13;5094705;28;20035;-80
2022/06/17 06:28:18;;;;;;;17.10;11.48;;;;;;;19.35;100.00;98402.72;5096078;28;20043;-82
2022/06/17 06:30:53;;;;;;;14.82;9.90;;;;;;;19.66;100.00;98413.34;5097718;28;20052;-81
2022/06/17 06:33:19;;;;;;;15.15;10.18;;;;;;;19.72;100.00;98411.97;5092147;28;20043;-77
2022/06/17 06:35:44;;;;;;;15.07;10.73;;;;;;;19.93;100.00;98418.25;5087380;28;20016;-79
2022/06/17 06:38:10;;;;;;;17.92;11.27;;;;;;;19.89;100.00;98408.97;5093243;28;20028;-79
2022/06/17 06:40:35;;;;;;;17.15;11.85;;;;;;;19.91;100.00;98406.69;5092717;28;20481;-78
2022/06/17 06:43:01;;;;;;;23.45;13.80;;;;;;;19.92;100.00;98411.09;5092640;28;20123;-79
2022/06/17 06:45:33;;;;;;;19.20;13.00;;;;;;;19.99;100.00;98400.19;5093769;28;20031;-80
2022/06/17 06:48:03;;;;;;;23.05;13.50;;;;;;;19.81;100.00;98407.13;5090954;28;20020;-78
2022/06/17 06:50:32;;;;;;;17.70;12.82;;;;;;;19.99;100.00;98407.72;5092505;28;20031;-77
2022/06/17 06:52:57;;;;;;;22.15;13.77;;;;;;;20.04;100.00;98390.84;5092047;28;20495;-78
2022/06/17 06:55:23;;;;;;;24.35;15.02;;;;;;;20.28;100.00;98424.22;5092321;28;20024;-75
2022/06/17 06:58:19;;;;;;;20.73;13.13;;;;;;;20.30;100.00;98410.75;5092031;28;20387;-78
2022/06/17 07:00:45;;;;;;;;;;;;;;;20.32;100.00;98425.16;5086289;28;20386;-82
2022/06/17 07:03:12;;;;;;;23.48;15.23;;;;;;;20.44;100.00;98399.31;5092480;28;19916;-79
2022/06/17 07:05:41;;;;;;;24.50;14.15;;;;;;;21.14;100.00;98423.78;5092329;28;20016;-79
2022/06/17 07:08:09;;;;;;;20.05;11.90;;;;;;;21.88;100.00;98419.44;5092965;28;20484;-79
2022/06/17 07:10:36;;;;;;;20.70;12.45;;;;;;;22.20;100.00;98426.69;5090394;28;20147;-78
2022/06/17 07:13:02;;;;;;;28.13;13.77;;;;;;;22.64;100.00;98434.91;5090816;28;20028;-78
2022/06/17 07:15:29;;;;;;;20.60;12.18;;;;;;;23.20;100.00;98433.44;5091640;28;20067;-77
2022/06/17 07:17:59;;;;;;;18.40;12.32;;;;;;;23.66;96.14;98436.38;5092096;28;20461;-78
2022/06/17 07:20:36;;;;;;;15.80;12.32;;;;;;;23.29;100.00;98428.44;5090130;28;20020;-79
2022/06/17 07:23:07;;;;;;;17.92;13.15;;;;;;;23.23;99.25;98424.31;5089984;28;20024;-76
2022/06/17 07:25:34;;;;;;;21.83;13.38;;;;;;;22.87;98.40;98405.16;5089763;28;20028;-79
2022/06/17 07:28:00;;;;;;;17.02;11.10;;;;;;;23.55;98.74;98429.78;5089421;28;20477;-78
2022/06/17 07:30:27;;;;;;;16.92;12.15;;;;;;;23.54;96.60;98422.56;5087221;28;20059;-79
2022/06/17 07:32:53;;;;;;;18.98;11.05;;;;;;;24.13;92.83;98427.69;5086646;28;20025;-78
2022/06/17 07:35:20;;;;;;;18.95;12.75;;;;;;;23.55;93.46;98416.63;5087568;28;20042;-75
2022/06/17 07:40:31;;;;;;;20.67;12.27;;;;;;;22.87;99.65;98419.13;5089467;28;20076;-76
2022/06/17 07:42:58;;;;;;;15.60;11.68;;;;;;;23.08;96.43;98400.06;5084064;28;20032;-78
2022/06/17 07:45:26;;;;;;;14.90;10.95;;;;;;;22.84;98.28;98391.94;5087321;28;20045;-78
2022/06/17 07:47:56;;;;;;;18.58;11.43;;;;;;;22.84;99.57;98397.53;5084496;28;20473;-80
2022/06/17 07:50:30;;;;;;;15.00;11.30;;;;;;;22.88;98.68;98381.69;5090803;28;20046;-78
2022/06/17 07:52:55;;;;;;;15.02;10.43;;;;;;;23.43;94.88;98388.84;5091013;28;20063;-76
2022/06/17 07:55:21;;;;;;;15.65;11.60;;;;;;;23.52;94.42;98406.19;5074072;28;20111;-78
2022/06/17 07:57:48;;;;;;;16.38;11.07;;;;;;;25.00;85.88;98410.69;5088446;28;20021;-79
2022/06/17 08:00:21;;;;;;;13.50;10.00;;;;;;;27.11;73.28;98399.94;5083581;28;20154;-78
2022/06/17 08:02:46;;;;;;;11.65;9.20;;;;;;;27.53;70.01;98411.41;5093978;28;20023;-78
2022/06/17 08:05:12;;;;;;;14.93;9.52;;;;;;;27.36;70.62;98405.69;5097939;28;20073;-77
2022/06/17 08:07:38;;;;;;;10.40;8.77;;;;;;;27.80;68.61;98403.44;5097332;28;20012;-79
2022/06/17 08:10:04;;;;;;;15.73;9.38;;;;;;;29.00;63.66;98409.13;5090734;28;20067;-77
2022/06/17 08:12:30;;;;;;;13.68;9.45;;;;;;;29.28;60.27;98408.28;5091250;28;20499;-79
2022/06/17 08:14:56;;;;;;;15.32;9.95;;;;;;;29.66;58.42;98396.03;5090926;28;20020;-80
2022/06/17 08:17:23;;;;;;;15.30;9.50;;;;;;;28.44;61.36;98395.09;5089210;28;20488;-76
2022/06/17 08:19:51;;;;;;;11.85;8.73;;;;;;;27.73;64.11;98406.25;5090518;28;20020;-78
2022/06/17 08:22:18;;;;;;;14.45;9.50;;;;;;;28.42;64.89;98401.13;5089078;28;20562;-78
2022/06/17 08:24:43;;;;;;;11.35;8.50;;;;;;;29.27;59.18;98389.75;5087530;28;20024;-78
2022/06/17 08:27:08;;;;;;;14.15;8.77;;;;;;;30.00;55.45;98398.25;5090547;28;20020;-80
2022/06/17 08:29:34;;;;;;;12.30;8.63;;;;;;;30.82;57.87;98415.34;5078883;28;20169;-83
2022/06/17 08:32:45;;;;;;;12.02;8.55;;;;;;;31.86;50.59;98397.56;5089630;28;20020;-81
2022/06/17 08:34:44;;;;;;;12.30;9.07;;;;;;;32.26;50.37;98407.13;5089276;28;20028;-79
2022/06/17 08:37:12;;;;;;;12.40;8.30;;;;;;;32.49;48.15;98409.97;5089169;28;20020;-77
2022/06/17 08:39:38;;;;;;;13.82;7.78;;;;;;;33.72;45.17;98394.69;5083279;28;20199;-77
2022/06/17 08:42:39;;;;;;;11.80;7.88;;;;;;;32.32;46.78;98413.91;5086298;28;20473;-77
2022/06/17 08:45:20;;;;;;;16.67;8.50;;;;;;;31.49;49.79;98406.13;5085565;28;20024;-76
2022/06/17 08:48:10;;;;;;;13.05;8.90;;;;;;;31.47;48.85;98406.56;5085862;28;20024;-76
2022/06/17 08:50:41;;;;;;;14.88;9.13;;;;;;;32.30;46.46;98397.31;5088183;28;20032;-76
2022/06/17 08:53:22;;;;;;;12.77;8.00;;;;;;;33.17;44.80;98415.28;5078628;28;20086;-76
2022/06/17 08:56:24;;;;;;;11.63;7.88;;;;;;;32.49;45.84;98409.97;5088504;28;20032;-77
2022/06/17 08:59:16;;;;;;;13.20;8.05;;;;;;;33.34;45.03;98411.28;5063688;28;20063;-76
2022/06/17 09:01:43;;;;;;;10.82;8.20;;;;;;;33.70;43.67;98409.34;5087897;28;20034;-74
2022/06/17 09:04:36;;;;;;;11.07;7.32;;;;;;;35.52;40.43;98412.91;5088067;28;20019;-76
2022/06/17 09:07:10;;;;;;;10.35;7.30;;;;;;;35.90;37.58;98415.88;5089301;28;20114;-77
2022/06/17 09:10:23;;;;;;;13.25;7.30;;;;;;;35.91;36.48;98406.84;5088947;28;20031;-75
2022/06/17 09:13:09;;;;;;;12.52;7.20;;;;;;;36.91;34.39;98404.41;5088030;28;20036;-78
2022/06/17 09:15:44;;;;;;;10.60;7.50;;;;;;;36.10;35.77;98398.56;5085248;28;20066;-76
2022/06/17 09:18:12;;;;;;;;;;;;;;;35.43;36.49;98398.53;5071053;28;20044;-76
2022/06/17 09:20:40;;;;;;;11.23;7.43;;;;;;;34.61;37.35;98394.25;5068834;28;19912;-80
2022/06/17 09:23:08;;;;;;;9.70;7.45;;;;;;;34.55;39.85;98390.31;5068969;28;20040;-78
2022/06/17 09:25:40;;;;;;;11.75;7.40;;;;;;;35.59;35.23;98392.75;5085851;28;20560;-79
2022/06/17 09:28:14;;;;;;;9.07;6.68;;;;;;;35.72;35.08;98404.19;5084344;28;20032;-77
2022/06/17 09:30:46;;;;;;;9.67;6.20;;;;;;;36.48;32.79;98399.34;5072298;28;20036;-77
2022/06/17 09:33:22;;;;;;;12.65;6.90;;;;;;;35.28;34.56;98414.38;5072248;28;20281;-78
2022/06/17 09:36:09;;;;;;;11.10;6.55;;;;;;;34.93;33.85;98402.72;5099822;28;20035;-76
2022/06/17 09:38:51;;;;;;;7.57;5.70;;;;;;;35.46;33.01;98409.00;5070030;28;20028;-76
2022/06/17 09:41:16;;;;;;;8.35;5.85;;;;;;;34.40;37.31;98408.94;5071020;28;20024;-78
2022/06/17 09:43:52;;;;;;;9.32;6.00;;;;;;;33.77;36.58;98414.06;5071695;28;20031;-76
2022/06/17 09:46:31;;;;;;;9.45;5.63;;;;;;;34.21;35.86;98421.97;5091025;28;20040;-75
2022/06/17 09:49:03;;;;;;;8.15;5.70;;;;;;;34.52;35.68;98413.94;5093980;28;20569;-79
2022/06/17 09:51:37;;;;;;;12.95;6.80;;;;;;;34.91;36.08;98413.75;5092793;28;20032;-74
2022/06/17 09:54:24;;;;;;;9.07;6.10;;;;;;;34.72;35.92;98417.50;5094328;28;20050;-73
2022/06/17 09:57:03;;;;;;;6.65;5.28;;;;;;;33.64;36.87;98402.59;5094083;28;20020;-74
2022/06/17 10:00:01;;;;;;;8.10;5.65;;;;;;;31.51;43.19;98386.75;5093875;28;21027;-75
2022/06/17 10:02:33;;;;;;;10.75;5.53;;;;;;;32.99;38.94;98403.44;5093738;28;20085;-79
2022/06/17 10:05:01;;;;;;;6.40;4.93;;;;;;;31.21;42.23;98398.78;5093904;28;20028;-74
2022/06/17 10:07:40;;;;;;;6.70;4.95;;;;;;;31.70;42.22;98388.91;5094349;28;20115;-78
2022/06/17 10:10:25;;;;;;;7.43;5.07;;;;;;;31.75;41.37;98389.25;5092117;28;20167;-74
2022/06/17 10:13:35;;;;;;;7.45;4.72;;;;;;;33.03;39.36;98396.47;5093538;28;20028;-76
2022/06/17 10:19:26;;;;;;;5.70;4.60;;;;;;;32.43;39.71;98374.84;5074500;28;20081;-74
2022/06/17 10:22:43;;;;;;;6.88;4.13;;;;;;;31.12;41.40;98376.69;5081284;28;20028;-75
2022/06/17 10:25:29;;;;;;;6.93;3.92;;;;;;;29.73;44.28;98375.41;5015221;28;20025;-76
2022/06/17 10:28:28;;;;;;;8.90;4.28;;;;;;;28.88;43.58;98378.56;5027105;28;20037;-76
2022/06/17 10:31:22;;;;;;;5.47;3.90;;;;;;;28.92;45.32;98361.63;5084486;28;20044;-74
2022/06/17 10:33:48;;;;;;;10.52;4.15;;;;;;;28.12;47.50;98367.75;5086508;28;20494;-75
2022/06/17 10:36:14;;;;;;;6.25;4.50;;;;;;;28.00;48.80;98348.44;5084670;28;20429;-73
2022/06/17 10:38:45;;;;;;;8.57;5.18;;;;;;;28.39;48.55;98353.25;5075152;28;20059;-74
2022/06/17 10:41:11;;;;;;;5.90;4.70;;;;;;;28.31;49.50;98355.31;5072377;28;20021;-76
2022/06/17 10:43:41;;;;;;;5.95;4.63;;;;;;;28.62;47.66;98365.72;5073556;28;20572;-73
2022/06/17 10:46:14;;;;;;;6.20;4.03;;;;;;;27.96;46.31;98360.88;5073325;28;20119;-77
2022/06/17 10:48:57;;;;;;;5.43;4.05;;;;;;;28.12;45.97;98369.78;5073183;28;20572;-74
2022/06/17 10:51:24;;;;;;;4.93;3.72;;;;;;;28.19;40.34;98369.78;5073260;28;20090;-73
2022/06/17 10:53:54;;;;;;;6.10;4.57;;;;;;;28.30;44.35;98341.63;5073316;28;20517;-74
2022/06/17 10:56:27;;;;;;;6.00;4.45;;;;;;;28.36;44.98;98340.00;5072490;28;20063;-75
2022/06/17 10:59:06;;;;;;;4.65;3.83;;;;;;;27.95;44.14;98343.19;5073300;28;20416;-75
2022/06/17 11:01:53;;;;;;;7.25;4.03;;;;;;;28.11;46.07;98345.63;5073162;28;20036;-74
2022/06/17 11:04:27;;;;;;;6.47;3.92;;;;;;;28.64;44.84;98339.94;5072687;28;20024;-74
2022/06/17 11:06:58;;;;;;;5.00;3.78;;;;;;;28.60;41.13;98345.59;5072912;28;20036;-74
2022/06/17 11:09:32;;;;;;;4.72;3.00;;;;;;;28.84;41.96;98354.44;5072903;28;20362;-75
2022/06/17 11:12:03;;;;;;;4.60;3.47;;;;;;;28.61;41.18;98349.22;5072901;28;20041;-74
2022/06/17 11:14:39;;;;;;;5.25;3.08;;;;;;;28.34;40.53;98343.22;5073259;28;20028;-75
2022/06/17 11:17:20;;;;;;;7.40;3.63;;;;;;;27.81;41.28;98350.81;5072757;28;20036;-74
2022/06/17 11:19:50;;;;;;;4.38;2.90;;;;;;;27.75;40.20;98355.22;5072717;28;20021;-74
2022/06/17 11:22:25;;;;;;;4.68;3.58;;;;;;;27.66;40.43;98345.16;5072642;28;20029;-74
2022/06/17 11:24:55;;;;;;;4.65;3.30;;;;;;;27.93;40.64;98339.19;5072486;28;20362;-74
2022/06/17 11:27:33;;;;;;;6.70;4.05;;;;;;;28.02;40.70;98353.66;5072480;28;20029;-75
2022/06/17 11:30:17;;;;;;;4.90;3.50;;;;;;;28.09;40.51;98339.63;5072919;28;20108;-75
2022/06/17 11:32:45;;;;;;;4.00;3.30;;;;;;;28.45;39.05;98349.63;5072179;28;20040;-75
2022/06/17 11:35:36;;;;;;;4.63;3.45;;;;;;;28.40;40.13;98341.63;5072122;28;20394;-74
2022/06/17 11:38:09;;;;;;;4.82;3.90;;;;;;;27.94;41.79;98335.94;5074704;28;20035;-73
2022/06/17 11:40:36;;;;;;;10.98;3.95;;;;;;;27.57;42.97;98336.31;5088735;28;20068;-80
2022/06/17 11:43:06;;;;;;;10.18;3.83;;;;;;;28.01;42.50;98323.91;5092196;28;20021;-81
2022/06/17 11:45:41;;;;;;;6.07;4.18;;;;;;;27.94;42.84;98337.97;5094399;28;20398;-78
2022/06/17 11:48:17;;;;;;;4.25;3.50;;;;;;;27.99;42.27;98315.06;5093362;28;20032;-77
2022/06/17 11:51:07;;;;;;;4.82;3.67;;;;;;;28.10;41.69;98324.31;5100486;28;20119;-77